Time;durP1;ratioP1;P1;durP2;ratioP2;P2;SDS_P1;SDS_P2;PMS_P1;PMS_P2;Temp;Humidity;BMP_temperature;BMP_pressure;BME280_temperature;BME280_humidity;BME280_pressure;Samples;Min_cycle;Max_cycle;Signal;HPM_P1;HPM_P2
2022/08/13 00:01:27;;;;;;;3.40;3.17;;;18.30;98.80;;;;;;6301989;28;20227;-61
2022/08/13 00:04:36;;;;;;;4.53;4.10;;;18.30;98.70;;;;;;6302691;28;20469;-61
2022/08/13 00:07:39;;;;;;;2.70;2.50;;;18.20;98.40;;;;;;6301420;28;20284;-61
2022/08/13 00:10:47;;;;;;;3.70;3.30;;;18.30;98.70;;;;;;6302341;28;20469;-61
2022/08/13 00:13:49;;;;;;;4.43;3.50;;;18.20;98.50;;;;;;6301923;28;20474;-62
2022/08/13 00:16:55;;;;;;;2.97;2.77;;;18.20;98.60;;;;;;6301809;28;20231;-62
2022/08/13 00:19:59;;;;;;;3.40;3.10;;;18.20;98.50;;;;;;6292317;28;20231;-61
2022/08/13 00:23:03;;;;;;;3.60;2.73;;;18.20;98.70;;;;;;6301558;28;20808;-61
2022/08/13 00:26:25;;;;;;;4.73;3.53;;;18.20;98.60;;;;;;6301932;28;20307;-61
2022/08/13 00:29:38;;;;;;;3.47;3.17;;;18.10;98.80;;;;;;6300101;28;20302;-61
2022/08/13 00:32:45;;;;;;;3.47;3.17;;;18.10;98.60;;;;;;6290177;28;20223;-61
2022/08/13 00:35:52;;;;;;;3.77;3.47;;;18.10;98.80;;;;;;6276568;28;20439;-61
2022/08/13 00:38:55;;;;;;;3.53;3.23;;;18.10;98.70;;;;;;6276753;28;20215;-61
2022/08/13 00:41:59;;;;;;;3.87;3.57;;;18.10;98.70;;;;;;6276299;28;20224;-62
2022/08/13 00:45:03;;;;;;;4.00;3.70;;;18.10;98.90;;;;;;6276560;28;20208;-62
2022/08/13 00:51:39;;;;;;;3.97;3.67;;;18.10;98.80;;;;;;6275741;28;20477;-62
2022/08/13 00:55:01;;;;;;;4.07;3.77;;;18.00;98.80;;;;;;6276324;28;20481;-61
2022/08/13 00:58:05;;;;;;;4.80;3.43;;;17.90;98.90;;;;;;6276405;28;20470;-62
2022/08/13 01:01:13;;;;;;;6.17;4.97;;;17.90;99.10;;;;;;6275611;28;20426;-61
2022/08/13 01:04:34;;;;;;;4.00;3.40;;;17.90;99.10;;;;;;6276000;28;20474;-61
2022/08/13 01:07:41;;;;;;;6.17;4.00;;;17.90;99.10;;;;;;6275827;28;20362;-61
2022/08/13 01:11:04;;;;;;;4.93;3.83;;;17.90;99.10;;;;;;6276008;28;20977;-61
2022/08/13 01:14:18;;;;;;;4.23;3.93;;;17.90;99.20;;;;;;6275563;28;20242;-61
2022/08/13 01:17:23;;;;;;;3.40;3.10;;;17.90;99.00;;;;;;6275344;28;20475;-61
2022/08/13 01:20:47;;;;;;;4.90;4.50;;;17.90;99.20;;;;;;6275355;28;20246;-61
2022/08/13 01:23:54;;;;;;;3.67;3.37;;;17.90;99.20;;;;;;6275352;28;20784;-61
2022/08/13 01:27:08;;;;;;;4.43;4.13;;;17.80;99.10;;;;;;6275205;28;20223;-62
2022/08/13 01:30:15;;;;;;;5.40;4.83;;;17.90;99.00;;;;;;6275291;28;20473;-62
2022/08/13 01:33:19;;;;;;;5.07;4.57;;;17.90;99.10;;;;;;6275520;28;20475;-62
2022/08/13 01:36:25;;;;;;;5.00;4.60;;;17.90;99.00;;;;;;6275027;28;20470;-62
2022/08/13 01:39:52;;;;;;;4.77;4.10;;;17.90;99.10;;;;;;6274738;28;20478;-62
2022/08/13 01:42:57;;;;;;;5.40;4.90;;;17.90;99.00;;;;;;6274637;28;20474;-62
2022/08/13 01:46:01;;;;;;;5.10;4.70;;;17.90;99.20;;;;;;6274499;28;20787;-62
2022/08/13 01:52:47;;;;;;;4.73;4.33;;;17.90;99.10;;;;;;6275136;28;20478;-61
2022/08/13 01:55:54;;;;;;;5.50;5.10;;;17.90;99.20;;;;;;6275073;28;20470;-62
2022/08/13 01:59:17;;;;;;;5.30;4.80;;;17.90;99.20;;;;;;6274561;28;20224;-62
2022/08/13 02:02:23;;;;;;;5.57;4.80;;;17.90;99.40;;;;;;6275052;28;20981;-61
2022/08/13 02:05:47;;;;;;;4.37;4.07;;;17.90;99.30;;;;;;6274436;28;20224;-61
2022/08/13 02:09:11;;;;;;;5.20;4.70;;;17.90;99.40;;;;;;6274870;28;20454;-61
2022/08/13 02:12:36;;;;;;;4.57;4.27;;;17.80;99.40;;;;;;6274322;28;20236;-61
2022/08/13 02:15:40;;;;;;;4.73;4.33;;;17.80;99.40;;;;;;6274778;28;20514;-61
2022/08/13 02:18:44;;;;;;;5.37;4.87;;;17.80;99.40;;;;;;6274504;28;20944;-61
2022/08/13 02:21:48;;;;;;;5.20;4.70;;;17.90;99.40;;;;;;6274083;28;20238;-62
2022/08/13 02:24:53;;;;;;;5.07;4.67;;;17.90;99.40;;;;;;6269868;28;20534;-62
2022/08/13 02:27:58;;;;;;;5.50;5.00;;;17.90;99.40;;;;;;6274413;28;20231;-62
2022/08/13 02:31:01;;;;;;;6.37;5.27;;;17.90;99.10;;;;;;6277870;28;20238;-62
2022/08/13 02:34:04;;;;;;;6.00;5.40;;;17.90;98.90;;;;;;6279351;28;20611;-62
2022/08/13 02:37:21;;;;;;;5.90;5.40;;;18.00;98.90;;;;;;6279819;28;20482;-62
2022/08/13 02:44:19;;;;;;;7.70;6.10;;;18.00;98.50;;;;;;6278975;28;20598;-62
2022/08/13 02:47:37;;;;;;;5.53;5.03;;;18.10;98.40;;;;;;6279139;28;20284;-62
2022/08/13 02:50:49;;;;;;;5.50;5.10;;;18.10;98.20;;;;;;6279315;28;20632;-62
2022/08/13 02:53:54;;;;;;;7.80;5.60;;;18.20;98.20;;;;;;6279355;28;20224;-61
2022/08/13 02:57:01;;;;;;;5.77;5.27;;;18.20;97.90;;;;;;6278904;28;20503;-61
2022/08/13 03:00:09;;;;;;;4.60;4.30;;;17.90;98.50;;;;;;6278469;28;20490;-61
2022/08/13 03:03:12;;;;;;;4.67;4.37;;;17.80;99.00;;;;;;6278612;28;20680;-61
2022/08/13 03:06:18;;;;;;;9.23;5.57;;;17.70;99.30;;;;;;6278796;28;20227;-61
2022/08/13 03:09:22;;;;;;;5.00;4.60;;;17.70;99.40;;;;;;6278825;28;20463;-61
2022/08/13 03:12:26;;;;;;;6.37;5.60;;;17.70;99.90;;;;;;6278554;28;20242;-61
2022/08/13 03:15:36;;;;;;;5.80;5.30;;;17.80;99.70;;;;;;6278253;28;20554;-61
2022/08/13 03:18:58;;;;;;;7.00;5.77;;;17.90;99.40;;;;;;6278379;28;20462;-62
2022/08/13 03:22:05;;;;;;;7.03;6.10;;;18.00;99.10;;;;;;6277933;28;20236;-61
2022/08/13 03:25:08;;;;;;;6.37;5.60;;;18.20;98.80;;;;;;6278304;28;20547;-61
2022/08/13 03:28:12;;;;;;;5.50;5.10;;;18.10;98.80;;;;;;6278404;28;20242;-61
2022/08/13 03:31:16;;;;;;;6.60;5.63;;;18.10;99.00;;;;;;6278356;28;20462;-61
2022/08/13 03:34:21;;;;;;;6.20;5.60;;;18.20;99.30;;;;;;6277953;28;20232;-61
2022/08/13 03:37:25;;;;;;;6.90;5.90;;;18.30;99.70;;;;;;6277964;28;20228;-61
2022/08/13 03:41:00;;;;;;;6.30;5.90;;;18.30;99.60;;;;;;6277673;28;20263;-61
2022/08/13 03:43:53;;;;;;;6.23;5.67;;;18.30;99.60;;;;;;6277697;28;20258;-61
2022/08/13 03:46:59;;;;;;;6.23;5.70;;;18.20;99.90;;;;;;6277994;28;20564;-61
2022/08/13 03:50:06;;;;;;;5.43;5.03;;;18.20;99.90;;;;;;6277989;28;20232;-61
2022/08/13 03:53:10;;;;;;;6.07;5.60;;;18.30;99.90;;;;;;6277615;28;20672;-62
2022/08/13 03:56:33;;;;;;;6.27;5.77;;;18.30;99.90;;;;;;6277573;28;20248;-61
2022/08/13 03:59:40;;;;;;;6.20;5.70;;;18.20;99.90;;;;;;6277253;28;20244;-61
2022/08/13 04:02:52;;;;;;;7.70;7.00;;;18.10;99.90;;;;;;6277354;28;20490;-61
2022/08/13 04:05:58;;;;;;;6.67;6.07;;;18.00;99.90;;;;;;6277628;28;20443;-61
2022/08/13 04:09:03;;;;;;;6.40;5.87;;;18.00;99.90;;;;;;6277805;28;20681;-61
2022/08/13 04:12:10;;;;;;;6.67;6.07;;;17.90;99.90;;;;;;6277255;28;20832;-61
2022/08/13 04:15:13;;;;;;;6.93;6.33;;;17.90;99.90;;;;;;6277442;28;20536;-61
2022/08/13 04:18:18;;;;;;;6.30;5.80;;;17.90;99.90;;;;;;6277077;28;20806;-61
2022/08/13 04:21:31;;;;;;;7.03;6.53;;;17.90;99.90;;;;;;6276919;28;20649;-61
2022/08/13 04:24:35;;;;;;;6.40;5.90;;;17.80;99.90;;;;;;6277366;28;20232;-61
2022/08/13 04:27:38;;;;;;;5.97;5.47;;;17.80;99.90;;;;;;6276976;28;20231;-61
2022/08/13 04:30:42;;;;;;;6.47;5.90;;;17.80;99.90;;;;;;6276899;28;20791;-61
2022/08/13 04:33:47;;;;;;;8.13;7.43;;;17.80;99.90;;;;;;6267625;28;20589;-61
2022/08/13 04:37:12;;;;;;;7.00;6.40;;;17.70;99.90;;;;;;6276683;28;20470;-61
2022/08/13 04:40:23;;;;;;;7.73;7.00;;;17.70;99.90;;;;;;6276615;28;20478;-60
2022/08/13 04:43:32;;;;;;;6.87;6.27;;;17.70;99.90;;;;;;6276147;28;20793;-61
2022/08/13 04:46:40;;;;;;;7.50;6.80;;;17.60;99.90;;;;;;6276121;28;20973;-61
2022/08/13 04:49:49;;;;;;;7.80;6.43;;;17.60;99.90;;;;;;6276394;28;20470;-61
2022/08/13 04:52:53;;;;;;;7.80;7.13;;;17.60;99.90;;;;;;6275579;28;20818;-61
2022/08/13 04:55:57;;;;;;;9.30;6.40;;;17.60;99.90;;;;;;6276060;28;20974;-61
2022/08/13 04:59:17;;;;;;;7.90;7.10;;;17.70;99.90;;;;;;6275834;28;21065;-61
2022/08/13 05:02:21;;;;;;;8.20;7.40;;;17.70;99.90;;;;;;6275647;28;20557;-61
2022/08/13 05:05:26;;;;;;;7.47;6.77;;;17.70;99.90;;;;;;6275857;28;20238;-61
2022/08/13 05:08:32;;;;;;;7.23;6.53;;;17.70;99.90;;;;;;6275921;28;20489;-60
2022/08/13 05:11:35;;;;;;;7.27;6.57;;;17.80;99.90;;;;;;6275871;28;20473;-60
2022/08/13 05:14:38;;;;;;;7.70;7.00;;;17.80;99.90;;;;;;6275886;28;20228;-62
2022/08/13 05:17:44;;;;;;;7.67;7.07;;;17.80;99.90;;;;;;6275552;28;20908;-60
2022/08/13 05:20:52;;;;;;;8.33;7.17;;;17.90;99.90;;;;;;6275671;28;20572;-60
2022/08/13 05:23:56;;;;;;;11.40;7.60;;;17.80;99.90;;;;;;6275437;28;20555;-59
2022/08/13 05:27:19;;;;;;;8.77;8.03;;;17.90;99.90;;;;;;6275313;28;20773;-60
2022/08/13 05:30:25;;;;;;;7.77;7.03;;;17.90;99.90;;;;;;6275009;28;20491;-60
2022/08/13 05:33:35;;;;;;;8.27;7.60;;;17.90;99.90;;;;;;6275251;28;20243;-60
2022/08/13 05:37:00;;;;;;;8.80;8.00;;;18.00;99.90;;;;;;6275318;28;20474;-62
2022/08/13 05:40:23;;;;;;;8.33;7.63;;;18.00;99.90;;;;;;6274893;28;20477;-61
2022/08/13 05:43:40;;;;;;;10.80;7.63;;;18.00;99.90;;;;;;6275124;28;20499;-60
2022/08/13 05:46:43;;;;;;;7.77;7.10;;;18.10;99.90;;;;;;6275197;28;20239;-60
2022/08/13 05:49:49;;;;;;;8.77;7.97;;;18.10;99.90;;;;;;6275143;28;20478;-61
2022/08/13 05:53:08;;;;;;;8.40;7.70;;;18.10;99.90;;;;;;6274816;28;20939;-61
2022/08/13 05:56:12;;;;;;;8.10;7.40;;;18.00;99.90;;;;;;6274937;28;20231;-60
2022/08/13 06:06:20;;;;;;;8.50;7.70;;;18.10;99.90;;;;;;6274155;28;20465;-61
2022/08/13 06:09:27;;;;;;;8.57;7.67;;;18.10;99.90;;;;;;6274875;28;20473;-61
2022/08/13 06:12:36;;;;;;;8.97;8.07;;;18.00;99.90;;;;;;6275032;28;20381;-61
2022/08/13 06:15:57;;;;;;;8.60;7.93;;;18.10;99.90;;;;;;6274980;28;20228;-61
2022/08/13 06:19:16;;;;;;;7.83;7.03;;;18.20;99.90;;;;;;6274538;28;20952;-61
2022/08/13 06:22:21;;;;;;;8.20;7.50;;;18.30;99.90;;;;;;6274045;28;20496;-61
2022/08/13 06:25:27;;;;;;;8.40;7.60;;;18.40;99.90;;;;;;6274638;28;20466;-61
2022/08/13 06:28:34;;;;;;;7.90;7.20;;;18.50;99.90;;;;;;6274489;28;20238;-61
2022/08/13 06:31:39;;;;;;;8.43;7.47;;;18.50;99.90;;;;;;6274337;28;20243;-61
2022/08/13 06:34:50;;;;;;;9.10;8.30;;;18.50;99.90;;;;;;6274476;28;20630;-61
2022/08/13 06:37:54;;;;;;;8.83;7.13;;;18.60;99.80;;;;;;6274616;28;20235;-61
2022/08/13 06:41:00;;;;;;;7.57;6.97;;;18.60;99.70;;;;;;6274197;28;20231;-61
2022/08/13 06:44:05;;;;;;;7.90;7.30;;;18.60;99.60;;;;;;6274055;28;20228;-62
2022/08/13 06:47:08;;;;;;;7.77;7.10;;;18.80;99.70;;;;;;6274344;28;20242;-61
2022/08/13 06:50:19;;;;;;;7.30;6.70;;;18.80;99.30;;;;;;6274189;28;20296;-61
2022/08/13 06:53:23;;;;;;;7.37;6.67;;;18.80;99.00;;;;;;6274104;28;20231;-61
2022/08/13 06:56:47;;;;;;;8.00;7.40;;;19.00;98.90;;;;;;6274703;28;20562;-61
2022/08/13 07:00:04;;;;;;;8.97;8.17;;;19.10;98.70;;;;;;6282100;28;20783;-61
2022/08/13 07:03:29;;;;;;;7.17;6.57;;;19.20;98.30;;;;;;6273895;28;20247;-62
2022/08/13 07:06:47;;;;;;;7.10;6.60;;;19.30;98.00;;;;;;6273973;28;20307;-61
2022/08/13 07:09:52;;;;;;;7.77;7.17;;;19.50;97.70;;;;;;6283637;28;20235;-61
2022/08/13 07:13:00;;;;;;;7.63;7.03;;;19.60;97.20;;;;;;6279753;28;20368;-62
2022/08/13 07:16:03;;;;;;;7.40;6.23;;;19.70;96.60;;;;;;6288644;28;20219;-62
2022/08/13 07:19:06;;;;;;;7.83;7.23;;;19.70;96.60;;;;;;6287638;28;20228;-61
2022/08/13 07:22:09;;;;;;;7.73;7.13;;;19.80;96.70;;;;;;6288571;28;20306;-62
2022/08/13 07:25:36;;;;;;;7.63;7.07;;;19.90;96.40;;;;;;6282709;28;20227;-61
2022/08/13 07:29:02;;;;;;;6.37;5.87;;;19.80;96.30;;;;;;6303126;28;20234;-62
2022/08/13 07:32:06;;;;;;;7.20;6.60;;;19.90;96.20;;;;;;6302887;28;20242;-61
2022/08/13 07:35:11;;;;;;;5.73;5.33;;;20.10;95.40;;;;;;6302847;28;20347;-61
2022/08/13 07:38:21;;;;;;;6.33;5.80;;;20.30;95.40;;;;;;6302943;28;20263;-61
2022/08/13 07:41:36;;;;;;;7.00;6.40;;;20.60;94.80;;;;;;6302824;28;20689;-61
2022/08/13 07:45:01;;;;;;;7.13;6.43;;;20.80;94.40;;;;;;6292637;28;20648;-61
2022/08/13 07:48:24;;;;;;;6.50;6.00;;;20.80;94.80;;;;;;6302216;28;20671;-62
2022/08/13 07:51:41;;;;;;;7.10;6.40;;;20.60;96.00;;;;;;6302335;28;20670;-62
2022/08/13 07:54:54;;;;;;;7.00;6.40;;;20.50;96.60;;;;;;6302822;28;20310;-61
2022/08/13 07:57:57;;;;;;;7.10;6.50;;;20.30;97.80;;;;;;6302835;28;20230;-61
2022/08/13 08:01:02;;;;;;;8.30;7.60;;;20.20;98.40;;;;;;6302086;28;20241;-61
2022/08/13 08:04:06;;;;;;;7.00;6.40;;;20.30;99.00;;;;;;6301902;28;20241;-62
2022/08/13 08:07:14;;;;;;;7.87;7.13;;;20.40;99.30;;;;;;6301698;28;20227;-62
2022/08/13 08:10:20;;;;;;;6.90;6.30;;;20.70;99.50;;;;;;6301899;28;20234;-62
2022/08/13 08:13:24;;;;;;;6.83;6.27;;;21.40;99.50;;;;;;6302153;28;20254;-62
2022/08/13 08:16:30;;;;;;;6.27;5.70;;;22.20;97.60;;;;;;6301958;28;20238;-62
2022/08/13 08:19:34;;;;;;;6.90;6.20;;;22.60;95.30;;;;;;6302287;28;20237;-62
2022/08/13 08:22:58;;;;;;;7.00;6.40;;;22.90;94.00;;;;;;6301442;28;20239;-62
2022/08/13 08:26:06;;;;;;;6.50;5.90;;;23.10;93.60;;;;;;6301690;28;20253;-62
2022/08/13 08:29:11;;;;;;;6.47;5.97;;;23.10;92.70;;;;;;6300856;28;20227;-62
2022/08/13 08:32:25;;;;;;;6.07;5.57;;;23.20;92.40;;;;;;6301404;28;20227;-62
2022/08/13 08:35:47;;;;;;;7.40;6.77;;;23.40;91.30;;;;;;6301436;28;20212;-62
2022/08/13 08:42:38;;;;;;;7.67;6.83;;;23.20;89.10;;;;;;6293544;28;20310;-62
2022/08/13 08:46:02;;;;;;;6.83;6.33;;;23.10;89.20;;;;;;6293598;28;20234;-62
2022/08/13 08:49:21;;;;;;;6.87;6.27;;;23.30;88.70;;;;;;6288488;28;20228;-61
2022/08/13 08:56:26;;;;;;;6.40;5.90;;;26.60;81.00;;;;;;6296228;28;20525;-62
2022/08/13 08:59:36;;;;;;;6.90;6.40;;;28.30;72.10;;;;;;6286858;28;20583;-62
2022/08/13 09:02:56;;;;;;;6.17;5.77;;;27.80;68.60;;;;;;6287134;28;20226;-63
2022/08/13 09:06:00;;;;;;;6.23;5.83;;;27.30;69.20;;;;;;6291367;28;20202;-62
2022/08/13 09:09:24;;;;;;;7.43;5.87;;;26.90;70.10;;;;;;6286416;28;20231;-63
2022/08/13 09:12:31;;;;;;;7.37;6.87;;;26.60;71.00;;;;;;6285510;28;20238;-63
2022/08/13 09:15:36;;;;;;;6.77;6.27;;;26.40;71.50;;;;;;6285540;28;20355;-63
2022/08/13 09:18:41;;;;;;;6.43;5.93;;;26.30;71.60;;;;;;6290964;28;20242;-62
2022/08/13 09:21:49;;;;;;;6.50;6.07;;;25.90;71.60;;;;;;6284944;28;20612;-62
2022/08/13 09:24:56;;;;;;;7.40;6.70;;;25.60;72.90;;;;;;6286315;28;20231;-61
2022/08/13 09:28:00;;;;;;;7.50;6.90;;;25.30;72.90;;;;;;6284996;28;20234;-61
2022/08/13 09:31:14;;;;;;;7.77;6.97;;;25.00;73.80;;;;;;6291797;28;20219;-62
2022/08/13 09:34:28;;;;;;;7.47;6.87;;;24.60;74.90;;;;;;6298320;28;20228;-61
2022/08/13 09:37:34;;;;;;;6.40;5.90;;;24.10;76.70;;;;;;6296614;28;20231;-63
2022/08/13 09:41:02;;;;;;;6.67;6.10;;;23.80;78.20;;;;;;6298534;28;20714;-61
2022/08/13 09:44:19;;;;;;;6.20;4.57;;;23.50;82.90;;;;;;6299391;28;20586;-62
2022/08/13 09:47:25;;;;;;;5.00;4.70;;;23.00;87.60;;;;;;6298860;28;20231;-63
2022/08/13 09:50:48;;;;;;;5.20;4.77;;;22.70;89.70;;;;;;6295815;28;20668;-61
2022/08/13 09:54:01;;;;;;;5.27;4.87;;;22.30;91.30;;;;;;6298923;28;20250;-62
2022/08/13 09:57:08;;;;;;;4.50;4.20;;;22.00;92.30;;;;;;6299545;28;20188;-62
2022/08/13 10:00:16;;;;;;;6.00;5.37;;;22.00;92.90;;;;;;6299142;28;20227;-62
2022/08/13 10:03:20;;;;;;;5.37;4.80;;;21.90;93.10;;;;;;6297747;28;20227;-61
2022/08/13 10:06:23;;;;;;;5.00;4.53;;;21.80;93.80;;;;;;6297610;28;20562;-61
2022/08/13 10:09:28;;;;;;;5.57;5.07;;;21.70;94.50;;;;;;6292971;28;20230;-61
2022/08/13 10:12:36;;;;;;;5.00;4.60;;;21.70;94.50;;;;;;6287115;28;20219;-61
2022/08/13 10:15:41;;;;;;;5.50;5.00;;;22.00;94.30;;;;;;6284579;28;20231;-61
2022/08/13 10:18:46;;;;;;;5.50;5.10;;;22.20;94.10;;;;;;6286853;28;20246;-62
2022/08/13 10:21:51;;;;;;;4.70;4.40;;;22.40;94.10;;;;;;6283740;28;20273;-62
2022/08/13 10:24:56;;;;;;;5.00;4.57;;;22.70;93.60;;;;;;6274349;28;20250;-62
2022/08/13 10:27:59;;;;;;;5.77;5.27;;;22.80;93.40;;;;;;6289098;28;20677;-62
2022/08/13 10:31:07;;;;;;;4.43;4.03;;;22.50;93.50;;;;;;6292029;28;20777;-62
2022/08/13 10:34:30;;;;;;;4.80;4.40;;;22.30;93.10;;;;;;6298316;28;20706;-62
2022/08/13 10:37:56;;;;;;;4.40;4.10;;;22.10;93.60;;;;;;6298653;28;20663;-63
2022/08/13 10:41:09;;;;;;;6.17;4.70;;;22.00;93.90;;;;;;6285124;28;20319;-61
2022/08/13 10:44:18;;;;;;;4.53;4.20;;;22.00;94.00;;;;;;6294531;28;20613;-63
2022/08/13 10:47:31;;;;;;;4.60;4.30;;;21.90;94.20;;;;;;6298313;28;20241;-61
2022/08/13 10:50:55;;;;;;;4.20;3.90;;;21.80;94.50;;;;;;6299842;28;20225;-61
2022/08/13 10:53:59;;;;;;;4.73;4.33;;;21.60;94.30;;;;;;6290894;28;20207;-61
2022/08/13 10:57:05;;;;;;;5.03;4.70;;;21.40;94.80;;;;;;6277950;28;20678;-61
2022/08/13 11:00:10;;;;;;;4.77;4.37;;;21.30;95.10;;;;;;6277674;28;20239;-60
2022/08/13 11:03:16;;;;;;;5.10;4.70;;;21.30;95.30;;;;;;6278535;28;20306;-60
2022/08/13 11:06:20;;;;;;;4.97;4.67;;;21.40;95.40;;;;;;6277982;28;20235;-62
2022/08/13 11:09:30;;;;;;;4.87;4.47;;;21.60;94.90;;;;;;6288306;28;20364;-61
2022/08/13 11:12:50;;;;;;;4.60;4.20;;;21.20;95.40;;;;;;6303095;28;20246;-60
2022/08/13 11:15:59;;;;;;;4.90;4.60;;;21.30;95.40;;;;;;6302408;28;20228;-60
2022/08/13 11:19:12;;;;;;;4.37;4.07;;;21.50;95.50;;;;;;6302446;28;20313;-60
2022/08/13 11:22:17;;;;;;;4.57;4.27;;;21.30;95.40;;;;;;6302785;28;20283;-60
2022/08/13 11:25:24;;;;;;;4.87;4.47;;;21.20;96.00;;;;;;6294237;28;20227;-61
2022/08/13 11:28:49;;;;;;;4.63;4.23;;;21.20;96.20;;;;;;6277204;28;20579;-60
2022/08/13 11:31:52;;;;;;;4.87;4.47;;;21.30;96.00;;;;;;6277157;28;20246;-61
2022/08/13 11:35:02;;;;;;;5.70;5.13;;;21.40;96.20;;;;;;6283375;28;20233;-61
2022/08/13 11:38:15;;;;;;;4.47;4.10;;;21.30;96.10;;;;;;6293835;28;20246;-60
2022/08/13 11:41:19;;;;;;;4.53;4.13;;;21.20;96.40;;;;;;6300801;28;20226;-60
2022/08/13 11:44:24;;;;;;;5.30;4.90;;;21.30;96.40;;;;;;6284589;28;20251;-61
2022/08/13 11:47:27;;;;;;;5.60;5.20;;;21.40;96.40;;;;;;6276513;28;20227;-61
2022/08/13 11:50:35;;;;;;;4.83;4.43;;;21.70;96.30;;;;;;6276325;28;20246;-60
2022/08/13 11:53:38;;;;;;;4.90;4.50;;;21.80;96.10;;;;;;6276496;28;20671;-61
2022/08/13 11:57:02;;;;;;;5.30;4.90;;;22.00;95.90;;;;;;6275614;28;20239;-61
2022/08/13 12:00:08;;;;;;;5.13;4.80;;;22.10;95.90;;;;;;6291049;28;20237;-60
2022/08/13 12:03:12;;;;;;;5.77;5.20;;;22.30;95.70;;;;;;6299954;28;20232;-62
2022/08/13 12:06:15;;;;;;;5.33;4.93;;;22.30;95.40;;;;;;6297777;28;20243;-62
2022/08/13 12:09:22;;;;;;;5.30;4.90;;;22.60;95.10;;;;;;6283189;28;20227;-62
2022/08/13 12:12:45;;;;;;;5.40;4.30;;;22.80;95.20;;;;;;6297826;28;20228;-62
2022/08/13 12:15:54;;;;;;;5.70;4.73;;;22.90;94.80;;;;;;6290475;28;20223;-62
2022/08/13 12:19:15;;;;;;;14.27;12.80;;;22.80;94.50;;;;;;6283746;28;20742;-62
2022/08/13 12:22:27;;;;;;;5.20;4.80;;;23.00;94.50;;;;;;6287419;28;20373;-62
2022/08/13 12:25:32;;;;;;;5.10;4.70;;;23.20;94.30;;;;;;6289917;28;20228;-62
2022/08/13 12:28:55;;;;;;;5.13;4.70;;;23.30;93.90;;;;;;6288365;28;20667;-63
2022/08/13 12:32:00;;;;;;;7.33;5.27;;;23.40;93.70;;;;;;6287139;28;20223;-63
2022/08/13 12:35:04;;;;;;;6.80;5.00;;;23.50;94.00;;;;;;6283675;28;20216;-63
2022/08/13 12:38:09;;;;;;;5.13;4.73;;;23.20;94.10;;;;;;6289324;28;20667;-62
2022/08/13 12:41:32;;;;;;;5.50;5.00;;;23.10;94.10;;;;;;6286634;28;20744;-62
2022/08/13 12:44:48;;;;;;;5.20;4.80;;;23.20;94.10;;;;;;6288552;28;20220;-62
2022/08/13 12:48:14;;;;;;;5.73;5.23;;;23.40;93.60;;;;;;6284726;28;20224;-62
2022/08/13 12:51:18;;;;;;;5.10;4.77;;;23.60;93.20;;;;;;6295538;28;20562;-62
2022/08/13 12:54:26;;;;;;;4.77;4.37;;;23.80;92.80;;;;;;6300340;28;20276;-62
2022/08/13 12:57:50;;;;;;;4.60;4.30;;;24.10;92.50;;;;;;6299528;28;20223;-62
2022/08/13 13:01:08;;;;;;;5.20;4.87;;;24.30;91.20;;;;;;6300103;28;20235;-62
2022/08/13 13:04:15;;;;;;;4.90;4.60;;;24.40;90.90;;;;;;6284816;28;20233;-61
2022/08/13 13:07:18;;;;;;;5.90;5.40;;;24.50;90.50;;;;;;6291364;28;20266;-61
2022/08/13 13:10:42;;;;;;;5.37;4.97;;;24.60;89.50;;;;;;6293661;28;20219;-61
2022/08/13 13:13:49;;;;;;;5.17;4.77;;;24.80;88.60;;;;;;6285908;28;20242;-61
2022/08/13 13:17:06;;;;;;;4.93;4.53;;;25.00;85.20;;;;;;6288607;28;20546;-61
2022/08/13 13:20:30;;;;;;;3.77;3.57;;;25.10;83.90;;;;;;6293726;28;20218;-61
2022/08/13 13:23:35;;;;;;;4.43;4.13;;;25.10;82.60;;;;;;6290873;28;20237;-61
2022/08/13 13:26:59;;;;;;;4.67;4.37;;;25.00;83.40;;;;;;6295546;28;20219;-61
2022/08/13 13:30:12;;;;;;;4.77;4.47;;;25.10;83.90;;;;;;6289583;28;20586;-61
2022/08/13 13:33:20;;;;;;;5.20;4.63;;;25.00;84.40;;;;;;6287952;28;20320;-61
2022/08/13 13:36:28;;;;;;;7.03;5.40;;;25.00;84.10;;;;;;6289247;28;20550;-61
2022/08/13 13:39:32;;;;;;;5.17;4.67;;;24.90;84.20;;;;;;6292066;28;20237;-62
2022/08/13 13:42:47;;;;;;;5.40;5.00;;;24.90;85.10;;;;;;6287023;28;20537;-63
2022/08/13 13:46:10;;;;;;;4.80;4.40;;;25.10;83.70;;;;;;6290522;28;20222;-62
2022/08/13 13:49:14;;;;;;;4.73;4.43;;;25.10;82.60;;;;;;6274968;28;20231;-62
2022/08/13 13:52:19;;;;;;;5.23;4.83;;;25.10;82.50;;;;;;6288985;28;20242;-62
2022/08/13 13:55:24;;;;;;;4.87;4.57;;;25.20;82.80;;;;;;6293555;28;20231;-62
2022/08/13 13:58:28;;;;;;;5.57;5.20;;;25.40;82.30;;;;;;6295920;28;20914;-63
2022/08/13 14:01:51;;;;;;;6.03;5.63;;;25.40;81.70;;;;;;6291201;28;20565;-63
2022/08/13 14:04:57;;;;;;;5.00;4.60;;;25.40;82.60;;;;;;6290267;28;20573;-62
2022/08/13 14:08:20;;;;;;;5.23;4.87;;;25.40;82.30;;;;;;6279675;28;20280;-62
2022/08/13 14:11:24;;;;;;;5.30;4.90;;;25.50;82.40;;;;;;6287275;28;20226;-62
2022/08/13 14:14:31;;;;;;;5.70;5.30;;;25.60;82.00;;;;;;6290850;28;20225;-62
2022/08/13 14:17:34;;;;;;;4.60;4.20;;;25.60;81.60;;;;;;6290588;28;20549;-62
2022/08/13 14:20:42;;;;;;;4.67;4.37;;;25.70;80.40;;;;;;6289336;28;20228;-62
2022/08/13 14:23:48;;;;;;;5.53;5.13;;;25.80;79.80;;;;;;6287053;28;20288;-62
2022/08/13 14:26:51;;;;;;;5.30;4.90;;;25.80;79.70;;;;;;6288096;28;20241;-63
2022/08/13 14:29:56;;;;;;;4.77;4.47;;;25.80;79.00;;;;;;6298853;28;20283;-63
2022/08/13 14:33:00;;;;;;;5.90;5.40;;;25.80;78.40;;;;;;6298738;28;20227;-62
2022/08/13 14:36:09;;;;;;;4.60;4.30;;;25.90;77.50;;;;;;6299057;28;20191;-62
2022/08/13 14:39:14;;;;;;;4.73;4.43;;;25.80;75.30;;;;;;6298328;28;20328;-63
2022/08/13 14:42:26;;;;;;;4.90;4.57;;;25.70;74.00;;;;;;6298834;28;20230;-63
2022/08/13 14:45:53;;;;;;;5.13;4.63;;;25.70;74.90;;;;;;6298693;28;20231;-62
2022/08/13 14:49:03;;;;;;;4.80;4.40;;;25.60;74.20;;;;;;6298863;28;20428;-63
2022/08/13 14:52:08;;;;;;;3.97;3.67;;;25.60;72.00;;;;;;6297423;28;20245;-62
2022/08/13 14:55:15;;;;;;;3.90;3.57;;;25.70;71.20;;;;;;6298673;28;20297;-62
2022/08/13 14:58:19;;;;;;;4.37;4.07;;;25.70;71.40;;;;;;6298446;28;20241;-62
2022/08/13 15:01:37;;;;;;;4.23;3.83;;;25.70;72.20;;;;;;6290509;28;20557;-60
2022/08/13 15:04:45;;;;;;;4.60;4.20;;;25.70;70.70;;;;;;6296536;28;20258;-61
2022/08/13 15:08:01;;;;;;;5.10;3.80;;;25.60;70.10;;;;;;6294131;28;20253;-63
2022/08/13 15:11:20;;;;;;;4.50;4.20;;;25.60;71.40;;;;;;6298076;28;20231;-63
2022/08/13 15:14:23;;;;;;;5.10;4.50;;;25.60;72.40;;;;;;6298301;28;20230;-61
2022/08/13 15:17:28;;;;;;;5.20;4.80;;;25.70;72.40;;;;;;6297697;28;20293;-61
2022/08/13 15:20:39;;;;;;;5.67;5.17;;;25.70;73.30;;;;;;6297785;28;20239;-61
2022/08/13 15:24:02;;;;;;;5.40;5.07;;;25.70;74.00;;;;;;6294719;28;20234;-61
2022/08/13 15:27:06;;;;;;;4.53;4.23;;;25.70;74.00;;;;;;6284415;28;20219;-61
2022/08/13 15:30:12;;;;;;;4.80;4.50;;;25.70;72.80;;;;;;6284032;28;20200;-61
2022/08/13 15:33:19;;;;;;;4.33;4.03;;;25.70;72.50;;;;;;6287266;28;20678;-62
2022/08/13 15:36:23;;;;;;;5.50;5.10;;;25.80;71.70;;;;;;6279159;28;20223;-62
2022/08/13 15:39:46;;;;;;;4.93;4.60;;;25.70;72.50;;;;;;6279279;28;20227;-61
2022/08/13 15:42:52;;;;;;;4.80;4.40;;;25.60;72.90;;;;;;6295264;28;20238;-61
2022/08/13 15:45:56;;;;;;;6.00;5.07;;;25.60;73.60;;;;;;6288753;28;20672;-61
2022/08/13 15:49:00;;;;;;;4.97;4.57;;;25.60;73.90;;;;;;6288806;28;20223;-61
2022/08/13 15:52:05;;;;;;;6.63;6.10;;;25.50;74.40;;;;;;6288697;28;20222;-60
2022/08/13 15:55:11;;;;;;;5.30;4.90;;;25.50;74.70;;;;;;6290160;28;20694;-60
2022/08/13 15:58:19;;;;;;;4.87;4.57;;;25.50;75.30;;;;;;6287514;28;20617;-61
2022/08/13 16:01:30;;;;;;;5.13;4.73;;;25.40;75.10;;;;;;6287105;28;20291;-60
2022/08/13 16:04:34;;;;;;;5.50;5.00;;;25.30;75.80;;;;;;6292271;28;20218;-61
2022/08/13 16:07:41;;;;;;;5.77;5.30;;;25.30;75.50;;;;;;6301430;28;20246;-61
2022/08/13 16:10:54;;;;;;;5.90;5.27;;;25.20;76.10;;;;;;6301292;28;20222;-61
2022/08/13 16:14:03;;;;;;;5.27;4.87;;;25.00;77.10;;;;;;6301269;28;20231;-61
2022/08/13 16:17:09;;;;;;;5.53;5.10;;;24.90;77.70;;;;;;6291893;28;20642;-60
2022/08/13 16:20:13;;;;;;;7.40;6.30;;;24.90;78.40;;;;;;6301040;28;20583;-60
2022/08/13 16:23:19;;;;;;;11.90;8.73;;;24.80;78.70;;;;;;6301063;28;20227;-61
2022/08/13 16:26:23;;;;;;;7.40;6.17;;;24.70;78.90;;;;;;6300816;28;20372;-60
2022/08/13 16:29:33;;;;;;;10.03;7.83;;;24.70;79.50;;;;;;6301568;28;20296;-61
2022/08/13 16:32:41;;;;;;;6.20;5.70;;;24.60;79.90;;;;;;6300943;28;20231;-61
2022/08/13 16:35:49;;;;;;;6.50;5.83;;;24.60;79.90;;;;;;6301060;28;20234;-61
2022/08/13 16:38:54;;;;;;;6.30;5.80;;;24.50;80.20;;;;;;6291622;28;20199;-61
2022/08/13 16:42:00;;;;;;;6.60;6.00;;;24.40;80.70;;;;;;6292044;28;20223;-59
2022/08/13 16:45:06;;;;;;;5.60;5.20;;;24.30;81.20;;;;;;6296661;28;20617;-62
2022/08/13 16:48:21;;;;;;;5.10;4.70;;;24.20;82.10;;;;;;6283485;28;20314;-61
2022/08/13 16:51:33;;;;;;;6.20;5.80;;;24.00;82.80;;;;;;6276074;28;20231;-62